Burntout, Alabama
Current Conditions -  °F | °C
As of 10:56 AM on Thursday 30 Oct 2014 (Local Time) from K1M4 Reporting Station
Clear Clear  
Wind Chill: 58°   Ceiling: Unl
Heat Index: 58°   Visibility: 10mi
Dew Point: 39°   Wind: 0mph
Humidity: 49%   Direction: NA
Pressure: 30.17"   Gusts: NA
Location:  34.3655°N, 88.0818°W
Report Text: K1M4 301556Z AUTO 00000KT 10SM CLR 14/04 A3017 RMK AO2 T01440038 SLP228
Loading
Personal Weather Stations






























Interactive Weather Map
Tropical Storm Tracking
New forecast layout! Learn more

10-Day Weather Forecast

Advertisements
Track Severe Weather on mobile